Home > Products > Valid Products > TAF

000
FTUS43 KFSD 301728
TAFFSD
TAF
KFSD 301728Z 3018/3118 17014G20KT P6SM SCT150 BKN250
     FM310000 17012KT P6SM BKN140
     FM310300 16011KT P6SM SHRA VCTS OVC090CB
      TEMPO 3104/3106 VRB25G40KT 6SM TSRA BKN050CB
     FM310700 22009KT P6SM BKN060
     FM310900 26008KT P6SM BKN080
     FM311300 30010KT P6SM BKN150=



000
FTUS43 KFSD 301728
TAFHON
TAF
KHON 301728Z 3018/3118 17015G22KT P6SM FEW200 SCT250
     FM302300 16013KT P6SM SCT150 BKN200
     FM310100 17010KT P6SM SHRA VCTS BKN090CB
      TEMPO 3101/3103 VRB25G40KT 5SM TSRA BKN050CB
     FM310300 19007KT P6SM SHRA OVC090
     FM310500 26009KT P6SM BKN090
     FM310800 29009KT P6SM BKN200
     FM311300 30013KT P6SM SCT250=



000
FTUS43 KFSD 301728
TAFSUX
TAF
KSUX 301728Z 3018/3118 17010KT P6SM SCT150 BKN250
     FM302100 19015G23KT P6SM SCT080 BKN150
     FM310300 15009KT P6SM BKN140
     FM310500 18008KT P6SM SHRA VCTS BKN090CB
      TEMPO 3105/3107 VRB25G35KT 6SM TSRA BKN050CB
     FM310800 21008KT P6SM OVC060
     FM311100 30007KT P6SM OVC080=



000
FTUS43 KFSD 301120
TAFFSD
TAF
KFSD 301120Z 3012/3112 13006KT P6SM BKN100
     FM301600 16010KT P6SM BKN250
     FM310300 17010KT P6SM OVC090
      TEMPO 3104/3106 VRB25G40KT 6SM TSRA BKN050CB
     FM310700 20007KT P6SM OVC070
     FM311000 27008KT P6SM BKN110=



000
FTUS43 KFSD 301120
TAFHON
TAF
KHON 301120Z 3012/3112 13007KT P6SM BKN250
      TEMPO 3012/3013 -TSRA BKN080CB
     FM301900 16012KT P6SM BKN250
     FM310000 17010KT P6SM BKN090
      TEMPO 3101/3103 VRB25G40KT 6SM TSRA BKN050CB
     FM310500 28008KT P6SM BKN200=



000
FTUS43 KFSD 301120
TAFSUX
TAF
KSUX 301120Z 3012/3112 12005KT P6SM BKN250
     FM301700 17010KT P6SM BKN200
     FM302000 18013KT P6SM BKN250
     FM310500 17007KT P6SM SHRA VCTS BKN090CB
     FM310800 20008KT P6SM SHRA VCTS BKN080CB
     FM310900 21008KT P6SM BKN090
     FM311100 26007KT P6SM OVC060=



000
FTUS43 KFSD 291726
TAFHON
TAF
KHON 291726Z 2918/3018 31009KT P6SM SKC
     FM300000 29005KT P6SM FEW150
     FM300300 14006KT P6SM SCT140
     FM300800 14010KT P6SM BKN110
      TEMPO 3008/3011 P6SM -TSRA BKN080CB
     FM301500 15013G18KT P6SM BKN150=



000
FTUS43 KFSD 291726
TAFSUX
TAF
KSUX 291726Z 2918/3018 26008KT P6SM SKC
     FM300000 VRB04KT P6SM SCT150
     FM300800 10006KT P6SM BKN120
      TEMPO 3008/3011 -TSRA BKN080CB
     FM301500 16013KT P6SM BKN100=



000
FTUS43 KFSD 291726
TAFFSD
TAF
KFSD 291726Z 2918/3018 28010KT P6SM SCT040
     FM300000 VRB04KT P6SM FEW250
     FM300700 09006KT P6SM BKN120
      TEMPO 3009/3011 P6SM -TSRA BKN080CB
     FM301500 16013KT P6SM SCT080=



000
FTUS43 KFSD 281913 AAA
TAFHON
TAF AMD
KHON 281913Z 2819/2918 35010KT P6SM -SHRA SCT015 OVC030
      TEMPO 2819/2821 4SM SHRA BKN015
     FM282200 35007KT P6SM OVC035
     FM290100 28005KT P6SM SCT035
     FM290600 21004KT P6SM BKN050
     FM291000 27005KT 3SM BR SKC
     FM291500 33012KT P6SM SCT030=



000
FTUS43 KFSD 281912 AAA
TAFFSD
TAF AMD
KFSD 281912Z 2819/2918 02011KT P6SM BKN025
     FM282100 02011KT P6SM SHRA VCTS BKN030CB
      TEMPO 2821/2823 3SM TSRA BKN022CB
     FM282300 34008KT P6SM BKN025
     FM290300 28004KT P6SM SCT030 BKN150
     FM291000 24004KT 3SM BR SCT070
     FM291500 27008KT P6SM SCT030=



000
FTUS43 KFSD 281211 AAB
TAFFSD
TAF AMD
KFSD 281211Z 2812/2912 03004KT 2SM SHRA SCT015 OVC035
      TEMPO 2812/2815 3SM SHRA BKN015
     FM281700 02007KT 6SM SHRA OVC020
     FM281900 01007KT P6SM SHRA VCTS OVC035CB
     FM282300 34008KT P6SM OVC050
     FM290500 29004KT P6SM BKN080
     FM290600 29004KT P6SM SCT090=



000
FTUS43 KFSD 281209 AAA
TAFSUX
TAF AMD
KSUX 281209Z 2812/2912 17008KT P6SM SCT015 OVC030
      TEMPO 2812/2815 BKN015
     FM281500 22006KT P6SM SCT015 OVC050
     FM281800 25008KT P6SM SHRA VCTS OVC070CB PROB30 2821/2823 4SM
      TSRA OVC025CB
     FM282300 29011KT P6SM OVC050
     FM290200 30007KT P6SM BKN080
     FM290400 29005KT P6SM SCT080=



000
FTUS43 KFSD 281207 AAA
TAFHON
TAF AMD
KHON 281207Z 2812/2912 35005KT 3SM BR OVC008
      TEMPO 2812/2814 2SM -SHRA BR SCT008 OVC020
     FM281400 36005KT 3SM -SHRA BR OVC013
     FM281600 36005KT 5SM -SHRA BR SCT012 OVC022
     FM282000 35007KT P6SM OVC060
     FM282100 35007KT P6SM OVC060
     FM290300 28004KT P6SM SCT120=



000
FTUS43 KFSD 281130
TAFFSD
TAF
KFSD 281130Z 2812/2912 03004KT 3SM -SHRA OVC015
     FM281700 02007KT 6SM SHRA OVC020
     FM281900 01007KT P6SM SHRA VCTS OVC035CB
     FM282300 34008KT P6SM OVC050
     FM290500 29004KT P6SM BKN080
     FM290600 29004KT P6SM SCT090=



000
FTUS43 KFSD 281130
TAFSUX
TAF
KSUX 281130Z 2812/2912 07004KT P6SM SCT015 OVC040
     FM281500 22006KT P6SM OVC050
     FM281800 25008KT P6SM SHRA VCTS OVC070CB PROB30 2821/2823 4SM
      TSRA OVC025CB
     FM282300 29011KT P6SM OVC050
     FM290200 30007KT P6SM BKN080
     FM290400 29005KT P6SM SCT080=



000
FTUS43 KFSD 281130
TAFHON
TAF
KHON 281130Z 2812/2912 35005KT P6SM OVC080
     FM281400 36005KT P6SM -SHRA OVC035
     FM282000 35007KT P6SM OVC060
     FM282100 35007KT P6SM OVC060
     FM290300 28004KT P6SM SCT120=



000
FTUS43 KFSD 280332 AAA
TAFSUX
TAF AMD
KSUX 280332Z 2804/2824 13005KT P6SM -TSRA SCT045 OVC070CB
     FM280600 VRB04KT P6SM SHRA OVC035
      TEMPO 2806/2810 4SM TS OVC030CB
     FM281000 VRB04KT P6SM SHRA VCTS OVC025CB
     FM281500 00000KT P6SM VCSH OVC035
     FM281800 18006KT P6SM BKN035
     FM282200 31007KT P6SM BKN045=



000
FTUS43 KFSD 272320
TAFFSD
TAF
KFSD 272320Z 2800/2824 03004KT P6SM SCT040
     FM280800 35004KT P6SM SHRA OVC035
      TEMPO 2808/2812 4SM TS OVC025CB
     FM281200 03007KT P6SM SHRA VCTS OVC025CB
     FM281800 35006KT P6SM VCSH OVC025=



000
FTUS43 KFSD 272320
TAFHON
TAF
KHON 272320Z 2800/2824 02006KT P6SM SCT100
     FM280200 35004KT P6SM BKN045
     FM281500 00000KT P6SM SHRA SCT045 BKN090
     FM281800 01006KT P6SM SHRA BKN045 OVC100
     FM282000 33008KT P6SM BKN045=



000
FTUS43 KFSD 272320
TAFSUX
TAF
KSUX 272320Z 2800/2824 13005KT P6SM SCT040
     FM280600 VRB04KT P6SM SHRA OVC035
      TEMPO 2806/2810 4SM TS OVC030CB
     FM281000 VRB04KT P6SM SHRA VCTS OVC025CB
     FM281500 00000KT P6SM VCSH OVC035
     FM281800 18006KT P6SM BKN035
     FM282200 31007KT P6SM BKN045=



    US Dept of Commerce
    National Oceanic and Atmospheric Administration
    National Weather Service
    1325 East West Highway
    Silver Spring, MD 20910
    Page Author: NWS Internet Services Team
Disclaimer
Information Quality
Credits
Glossary
Privacy Policy
Freedom of Information Act (FOIA)
About Us
Career Opportunities